Latest Weather Observations for Melbourne (Olympic Park)

IDV60901

Issued at 4:21 pm EDT Wednesday 19 December 2018 (issued every 10 minutes, with the page automatically refreshed every 10 minutes)

About weather observations | Map of Melbourne area stations | Latest observations for Melbourne area | Other Formats
Station Details ID: 086338 Name: MELBOURNE (OLYMPIC PARK) Lat: -37.83 Lon: 144.98 Height: 7.53 m
Data from the previous 72 hours. | See also: Recent months at Melbourne (Olympic Park)
Date/Time
EDT
Temp
°C
App
Temp
°C
Dew
Point
°C
Rel
Hum
%
Delta-T
°C
Wind Press
QNH
hPa
Press
MSL
hPa
Rain since
9am
mm
Dir  Spd
km/h
Gust
km/h
Spd
kts
Gust
kts
19/04:00pm 23.1 23.9 16.4 66 4.1 SSW 7 11 4 6 1009.9 1009.9 0.0
19/03:30pm 23.5 24.1 16.8 66 4.1 SSW 9 13 5 7 1009.9 1009.9 0.0
19/03:00pm 24.6 24.6 16.3 60 5.1 SSW 11 17 6 9 1009.9 1009.9 0.0
19/02:30pm 26.7 27.9 16.9 55 6.1 SSW 6 11 3 6 1009.9 1009.9 0.0
19/02:00pm 25.1 25.6 14.9 53 6.1 NW 6 13 3 7 1010.2 1010.2 0.0
19/01:30pm 24.2 24.8 15.4 58 5.3 S 6 9 3 5 1010.1 1010.1 0.0
19/01:00pm 23.0 24.0 16.3 66 4.1 SSW 6 15 3 8 1010.5 1010.5 0.0
19/12:30pm 23.0 23.5 15.1 61 4.7 WSW 6 7 3 4 1010.8 1010.8 0.0
19/12:00pm 22.4 22.9 15.0 63 4.4 S 6 7 3 4 1011.3 1011.3 0.0
19/11:30am 21.6 21.9 15.0 66 3.9 N 7 13 4 7 1012.1 1012.1 0.0
19/11:00am 21.5 22.0 15.6 69 3.5 NNE 7 13 4 7 1012.0 1012.0 0.0
19/10:30am 21.1 21.2 15.6 71 3.3 NNW 9 17 5 9 1012.7 1012.7 0.0
19/10:00am 20.3 20.4 15.5 74 2.8 NNE 9 15 5 8 1013.3 1013.3 0.0
19/09:30am 20.2 21.4 15.8 76 2.6 ENE 4 7 2 4 1012.6 1012.6 0.0
19/09:00am 19.2 21.0 15.5 79 2.2 CALM 0 0 0 0 1012.8 1012.8 0.0
19/08:30am 18.6 19.9 15.1 80 2.0 NNE 2 7 1 4 1013.0 1013.0 0.0
19/08:00am 18.3 18.9 15.4 83 1.7 N 6 9 3 5 1012.3 1012.3 0.0
19/07:30am 18.1 18.2 15.4 84 1.6 E 9 15 5 8 1011.9 1011.9 0.0
19/07:00am 17.7 18.1 15.3 86 1.4 SE 7 11 4 6 1011.7 1011.7 0.0
19/06:30am 17.3 18.7 15.5 89 1.1 SSE 2 6 1 3 1012.2 1012.2 0.0
19/06:00am 16.9 18.6 15.2 90 1.0 CALM 0 0 0 0 1012.1 1012.1 0.0
19/05:30am 16.8 18.2 15.3 91 0.9 S 2 6 1 3 1011.4 1011.4 0.0
19/05:00am 17.3 19.0 15.3 88 1.2 CALM 0 0 0 0 1011.8 1011.8 0.0
19/04:30am 17.7 18.2 15.1 85 1.5 SSE 6 11 3 6 1011.7 1011.7 0.0
19/04:00am 18.0 19.4 15.3 84 1.6 W 2 9 1 5 1012.0 1012.0 0.0
19/03:30am 18.2 18.8 15.3 83 1.7 SSW 6 15 3 8 1012.0 1012.0 0.0
19/03:00am 18.2 19.3 15.6 85 1.5 WSW 4 11 2 6 1012.4 1012.4 0.0
19/02:30am 18.3 18.9 15.9 86 1.4 WSW 7 17 4 9 1012.8 1012.8 0.0
19/02:00am 18.4 19.1 16.2 87 1.3 WSW 7 11 4 6 1013.2 1013.2 0.0
19/01:30am 18.0 18.8 15.8 87 1.3 W 6 9 3 5 1013.6 1013.6 0.0
19/01:00am 17.8 18.4 15.4 86 1.4 W 6 9 3 5 1013.8 1013.8 0.0
19/12:30am 17.8 19.1 15.2 85 1.5 S 2 7 1 4 1013.8 1013.8 0.0
19/12:00am 17.9 17.9 15.3 85 1.5 SSE 9 13 5 7 1014.2 1014.2 0.0
 
Date/Time
EDT
Temp
°C
App
Temp
°C
Dew
Point
°C
Rel
Hum
%
Delta-T
°C
Wind Press
QNH
hPa
Press
MSL
hPa
Rain since
9am
mm
Dir  Spd
km/h
Gust
km/h
Spd
kts
Gust
kts
18/11:30pm 18.1 18.7 15.2 83 1.7 SSW 6 11 3 6 1014.9 1014.9 0.0
18/11:00pm 18.2 18.4 14.7 80 2.0 S 7 15 4 8 1014.9 1014.9 0.0
18/10:30pm 18.3 17.6 14.4 78 2.2 SSW 11 17 6 9 1015.6 1015.6 0.0
18/10:00pm 18.4 18.4 14.1 76 2.5 SSW 7 11 4 6 1015.5 1015.5 0.0
18/09:30pm 18.5 18.5 14.2 76 2.5 SSE 7 13 4 7 1014.9 1014.9 0.0
18/09:00pm 18.7 18.0 14.4 76 2.5 SSE 11 22 6 12 1014.5 1014.5 0.0
18/08:30pm 18.6 17.8 15.1 80 2.0 SSW 13 20 7 11 1015.0 1015.0 0.0
18/08:00pm 18.8 18.3 14.9 78 2.3 S 11 19 6 10 1015.3 1015.3 0.0
18/07:30pm 18.8 17.8 14.7 77 2.4 SSW 13 22 7 12 1015.5 1015.5 0.0
18/07:00pm 19.0 18.4 14.7 76 2.5 S 11 20 6 11 1015.1 1015.1 0.0
18/06:30pm 19.2 18.2 14.5 74 2.7 SSW 13 22 7 12 1014.8 1014.8 0.0
18/06:00pm 19.1 17.5 13.9 72 3.0 SSW 15 28 8 15 1014.9 1014.9 0.0
18/05:30pm 19.5 18.0 14.3 72 3.0 SSW 15 26 8 14 1015.0 1015.0 0.0
18/05:00pm 19.5 18.0 14.3 72 3.0 S 15 28 8 15 1015.0 1015.0 0.0
18/04:30pm 19.0 17.4 13.8 72 3.0 S 15 28 8 15 1015.3 1015.3 0.0
18/04:00pm 19.6 17.7 14.2 71 3.1 SSW 17 28 9 15 1015.1 1015.1 0.0
18/03:30pm 19.6 18.1 14.2 71 3.1 SSW 15 26 8 14 1015.3 1015.3 0.0
18/03:00pm 19.1 17.4 13.5 70 3.2 SSW 15 28 8 15 1015.5 1015.5 0.0
18/02:30pm 19.1 17.1 12.6 66 3.6 SSW 15 24 8 13 1015.7 1015.7 0.0
18/02:00pm 20.0 18.8 14.1 69 3.4 SSW 13 26 7 14 1015.7 1015.7 0.0
18/01:30pm 19.9 18.7 12.7 63 4.1 SSW 11 22 6 12 1015.6 1015.6 0.0
18/01:00pm 19.3 16.9 12.8 66 3.7 SSW 17 22 9 12 1016.1 1016.1 0.0
18/12:30pm 19.6 18.5 13.1 66 3.7 SSW 11 17 6 9 1016.5 1016.5 0.0
18/12:00pm 19.1 17.9 12.8 67 3.5 SW 11 19 6 10 1016.6 1016.6 0.0
18/11:30am 18.5 17.1 13.4 72 2.9 SSW 13 20 7 11 1017.0 1017.0 0.0
18/11:00am 18.0 16.6 13.3 74 2.6 S 13 20 7 11 1017.0 1017.0 0.0
18/10:30am 17.6 16.9 13.3 76 2.4 SSW 9 19 5 10 1017.0 1017.0 0.0
18/10:00am 17.9 16.9 12.4 70 3.0 SSW 9 17 5 9 1017.1 1017.1 0.0
18/09:30am 17.8 16.2 11.4 66 3.5 S 11 19 6 10 1016.7 1016.7 0.0
18/09:00am 17.6 16.5 12.1 70 3.0 SE 9 15 5 8 1016.6 1016.6 0.0
18/08:30am 17.3 16.3 12.4 73 2.7 SSE 9 17 5 9 1016.5 1016.5 0.0
18/08:00am 17.1 16.5 12.2 73 2.7 SSE 7 13 4 7 1016.4 1016.4 0.0
18/07:30am 17.0 16.4 11.7 71 2.9 SSE 6 11 3 6 1015.9 1015.9 0.0
18/07:00am 16.9 16.1 11.6 71 2.9 SSE 7 15 4 8 1015.4 1015.4 0.0
18/06:30am 16.7 15.5 11.6 72 2.8 SSE 9 13 5 7 1015.0 1015.0 0.0
18/06:00am 16.7 15.9 11.6 72 2.8 SE 7 13 4 7 1014.7 1014.7 0.0
18/05:30am 16.8 16.2 12.3 75 2.5 SE 7 11 4 6 1014.4 1014.4 0.0
18/05:00am 16.9 16.3 12.2 74 2.6 SSE 7 13 4 7 1014.3 1014.3 0.0
18/04:30am 16.9 16.3 12.2 74 2.6 SSE 7 13 4 7 1014.2 1014.2 0.0
18/04:00am 17.1 17.2 12.6 75 2.5 SSE 4 9 2 5 1014.0 1014.0 0.0
18/03:30am 17.0 16.4 12.3 74 2.6 SSE 7 11 4 6 1014.3 1014.3 0.0
18/03:00am 17.0 16.5 12.7 76 2.4 S 7 11 4 6 1014.3 1014.3 0.0
18/02:30am 17.1 16.6 12.6 75 2.5 SSW 7 11 4 6 1014.6 1014.6 0.0
18/02:00am 17.2 16.0 12.7 75 2.5 S 11 17 6 9 1014.8 1014.8 0.0
18/01:30am 17.2 16.7 12.7 75 2.5 S 7 13 4 7 1014.9 1014.9 0.0
18/01:00am 17.2 16.8 13.1 77 2.3 SSW 7 13 4 7 1015.0 1015.0 0.0
18/12:30am 17.2 16.5 13.1 77 2.3 S 9 15 5 8 1015.2 1015.2 0.0
18/12:00am 17.3 17.2 13.4 78 2.2 SSW 6 13 3 7 1015.5 1015.5 0.0
 
Date/Time
EDT
Temp
°C
App
Temp
°C
Dew
Point
°C
Rel
Hum
%
Delta-T
°C
Wind Press
QNH
hPa
Press
MSL
hPa
Rain since
9am
mm
Dir  Spd
km/h
Gust
km/h
Spd
kts
Gust
kts
17/11:30pm 17.4 16.9 13.7 79 2.1 SSW 9 15 5 8 1015.4 1015.4 0.0
17/11:00pm 17.5 16.7 14.0 80 2.0 SSW 11 17 6 9 1015.3 1015.3 0.0
17/10:30pm 17.4 16.7 14.3 82 1.8 S 11 20 6 11 1015.2 1015.2 0.0
17/10:00pm 17.5 17.1 14.2 81 1.9 S 9 17 5 9 1015.4 1015.4 0.0
17/09:30pm 17.5 17.2 14.4 82 1.8 S 9 19 5 10 1015.4 1015.4 0.0
17/09:00pm 17.4 17.6 14.7 84 1.6 SSE 7 13 4 7 1015.2 1015.2 0.0
17/08:30pm 17.4 16.2 14.1 81 1.9 SSW 13 26 7 14 1015.2 1015.2 0.0
17/08:00pm 18.0 17.4 14.5 80 2.0 SSW 11 20 6 11 1014.8 1014.8 0.0
17/07:30pm 18.2 16.7 14.1 77 2.3 SSW 15 20 8 11 1014.5 1014.5 0.0
17/07:00pm 18.8 17.8 14.7 77 2.4 S 13 22 7 12 1014.2 1014.2 0.0
17/06:30pm 19.4 18.1 14.9 75 2.6 SSW 15 26 8 14 1013.8 1013.8 0.0
17/06:00pm 19.4 18.0 14.4 73 2.9 SSW 15 24 8 13 1013.5 1013.5 0.0
17/05:30pm 19.7 18.4 14.7 73 2.9 SSW 15 24 8 13 1013.4 1013.4 0.0
17/05:00pm 19.6 17.9 14.8 74 2.8 S 17 28 9 15 1013.2 1013.2 0.0
17/04:30pm 19.9 18.8 15.3 75 2.7 SSW 15 30 8 16 1013.0 1013.0 0.0
17/04:00pm 20.5 19.7 16.1 76 2.6 SSW 15 24 8 13 1012.9 1012.9 0.0
17/03:30pm 20.5 19.8 16.3 77 2.5 S 15 26 8 14 1013.1 1013.1 0.0
17/03:00pm 20.6 19.4 16.0 75 2.8 S 17 26 9 14 1012.7 1012.7 0.0
17/02:30pm 20.0 18.3 14.6 71 3.1 S 17 28 9 15 1012.5 1012.5 0.0
17/02:00pm 20.3 20.2 16.1 77 2.5 S 11 26 6 14 1012.2 1012.2 0.0
17/01:30pm 21.0 20.3 15.3 70 3.4 S 13 22 7 12 1012.0 1012.0 0.0
17/01:00pm 20.8 20.7 14.9 69 3.5 S 9 20 5 11 1012.0 1012.0 0.0
17/12:30pm 20.9 20.6 15.4 71 3.3 S 11 19 6 10 1012.1 1012.1 0.0
17/12:00pm 21.4 21.3 16.1 72 3.2 S 11 20 6 11 1012.2 1012.2 0.0
17/11:30am 20.7 20.2 15.0 70 3.4 SSW 11 17 6 9 1012.1 1012.1 0.0
17/11:00am 20.5 20.7 15.7 74 2.9 S 9 15 5 8 1012.0 1012.0 0.0
17/10:30am 19.7 19.7 15.1 75 2.7 S 9 17 5 9 1011.9 1011.9 0.0
17/10:00am 19.5 19.9 14.7 74 2.8 SW 6 11 3 6 1011.8 1011.8 0.0
17/09:30am 19.6 20.0 14.8 74 2.8 SW 6 13 3 7 1011.7 1011.7 0.0
17/09:00am 18.9 19.0 15.4 80 2.1 SW 9 20 5 11 1011.7 1011.7 2.0
17/08:30am 18.9 20.2 15.2 79 2.2 SSW 2 11 1 6 1011.5 1011.5 2.0
17/08:00am 17.6 18.1 14.9 84 1.6 WNW 6 11 3 6 1011.1 1011.1 2.0
17/07:30am 16.7 17.3 15.2 91 0.9 W 6 11 3 6 1010.6 1010.6 2.0
17/07:00am 16.1 16.4 15.1 94 0.6 WSW 7 13 4 7 1010.3 1010.3 2.0
17/06:30am 15.9 16.5 15.9 100 0.0 W 7 13 4 7 1009.9 1009.9 2.0
17/06:00am 15.9 16.5 15.9 100 0.0 WSW 7 13 4 7 1009.5 1009.5 2.0
17/05:30am 15.8 17.0 15.8 100 0.0 SW 4 9 2 5 1009.4 1009.4 1.8
17/05:00am 15.7 17.6 15.7 100 0.0 CALM 0 0 0 0 1008.9 1008.9 1.8
17/04:30am 15.8 17.7 15.8 100 0.0 CALM 0 6 0 3 1008.6 1008.6 1.8
17/04:00am 15.8 16.4 15.8 100 0.0 NNE 7 9 4 5 1008.3 1008.3 1.8
17/03:30am 15.9 17.9 15.9 100 0.0 CALM 0 0 0 0 1008.1 1008.1 1.8
17/03:00am 15.9 17.9 15.9 100 0.0 CALM 0 0 0 0 1007.7 1007.7 1.8
17/02:30am 16.0 17.6 16.0 100 0.0 NE 2 7 1 4 1007.7 1007.7 1.8
17/02:00am 16.1 18.1 16.1 100 0.0 CALM 0 0 0 0 1008.0 1008.0 1.8
17/01:30am 16.1 18.1 16.1 100 0.0 CALM 0 0 0 0 1008.2 1008.2 1.8
17/01:00am 16.3 18.4 16.3 100 0.0 CALM 0 0 0 0 1008.3 1008.3 1.8
17/12:30am 16.6 18.8 16.6 100 0.0 CALM 0 0 0 0 1008.2 1008.2 1.8
17/12:00am 16.8 19.1 16.8 100 0.0 CALM 0 6 0 3 1008.3 1008.3 1.8
 
Date/Time
EDT
Temp
°C
App
Temp
°C
Dew
Point
°C
Rel
Hum
%
Delta-T
°C
Wind Press
QNH
hPa
Press
MSL
hPa
Rain since
9am
mm
Dir  Spd
km/h
Gust
km/h
Spd
kts
Gust
kts
16/11:30pm 16.8 19.1 16.8 100 0.0 CALM 0 6 0 3 1008.6 1008.6 1.8
16/11:00pm 17.0 19.4 17.0 100 0.0 CALM 0 0 0 0 1008.3 1008.3 1.8
16/10:30pm 17.3 19.8 17.3 100 0.0 CALM 0 2 0 1 1008.0 1008.0 1.8
16/10:00pm 17.4 19.9 17.2 99 0.1 CALM 0 0 0 0 1007.6 1007.6 1.8
16/09:30pm 18.0 20.5 17.2 95 0.5 CALM 0 0 0 0 1007.4 1007.4 1.8
16/09:00pm 18.1 19.7 16.8 92 0.8 SSW 4 11 2 6 1007.3 1007.3 1.8
16/08:30pm 18.4 19.4 16.9 91 0.9 SSW 7 11 4 6 1006.9 1006.9 1.8
16/08:00pm 18.8 21.2 17.1 90 1.0 CALM 0 7 0 4 1006.6 1006.6 1.8
16/07:30pm 19.2 21.4 16.4 84 1.7 CALM 0 6 0 3 1006.2 1006.2 1.8
16/07:00pm 22.1 20.7 13.5 58 5.0 NNW 13 19 7 10 1005.7 1005.7 0.8
16/06:30pm 22.7 21.7 14.5 60 4.8 NNW 13 20 7 11 1005.3 1005.3 0.8
16/06:00pm 22.1 19.8 12.9 56 5.3 NNW 17 26 9 14 1005.2 1005.2 0.8
16/05:30pm 22.0 20.4 13.9 60 4.7 N 15 22 8 12 1005.0 1005.0 0.8
16/05:00pm 21.3 22.1 16.3 73 3.0 NNW 7 11 4 6 1005.2 1005.2 0.8
16/04:30pm 19.0 19.5 14.9 77 2.4 NW 6 13 3 7 1005.5 1005.5 0.8

Latest Capital City Observations: Canberra | Sydney | Melbourne | Brisbane | Adelaide | Perth | Hobart | Darwin

Other Formats:

Comma delimited format used in spreadsheet applications
http://www.bom.gov.au/fwo/IDV60901/IDV60901.95936.axf

JavaScript Object Notation format (JSON) in row-major order
http://www.bom.gov.au/fwo/IDV60901/IDV60901.95936.json